Time;durP1;ratioP1;P1;durP2;ratioP2;P2;SDS_P1;SDS_P2;PMS_P1;PMS_P2;Temp;Humidity;BMP_temperature;BMP_pressure;BME280_temperature;BME280_humidity;BME280_pressure;Samples;Min_cycle;Max_cycle;Signal;HPM_P1;HPM_P2
2022/10/08 00:01:04;;;;;;;10.45;2.17;;;13.30;99.90;;;;;;5125785;27;20159;-68
2022/10/08 00:03:33;;;;;;;6.83;2.03;;;13.30;99.90;;;;;;5113221;27;20106;-68
2022/10/08 00:06:02;;;;;;;9.35;2.30;;;13.30;99.90;;;;;;5120780;27;20078;-68
2022/10/08 00:08:29;;;;;;;5.03;1.77;;;13.30;99.90;;;;;;5124368;27;20433;-68
2022/10/08 00:10:57;;;;;;;11.77;1.75;;;13.20;99.90;;;;;;5116269;27;20043;-69
2022/10/08 00:13:25;;;;;;;6.82;1.77;;;13.20;99.90;;;;;;5113808;27;20038;-68
2022/10/08 00:15:51;;;;;;;8.63;2.25;;;13.10;99.90;;;;;;5129593;27;20050;-69
2022/10/08 00:18:18;;;;;;;12.07;2.20;;;13.10;99.90;;;;;;5109483;27;20049;-68
2022/10/08 00:20:44;;;;;;;12.23;2.53;;;13.00;99.90;;;;;;5148087;27;20122;-68
2022/10/08 00:23:10;;;;;;;8.80;2.15;;;12.90;99.90;;;;;;5125611;27;20481;-69
2022/10/08 00:25:43;;;;;;;9.38;2.15;;;12.90;99.90;;;;;;5129732;27;20038;-69
2022/10/08 00:28:10;;;;;;;7.72;1.83;;;12.90;99.90;;;;;;5126809;27;20552;-69
2022/10/08 00:30:40;;;;;;;7.95;1.70;;;12.90;99.90;;;;;;5125619;27;20125;-69
2022/10/08 00:33:07;;;;;;;14.48;2.47;;;12.90;99.90;;;;;;5107404;27;20143;-69
2022/10/08 00:35:38;;;;;;;8.00;2.20;;;12.90;99.90;;;;;;5124438;27;20476;-69
2022/10/08 00:38:04;;;;;;;8.07;1.60;;;12.80;99.90;;;;;;5128424;27;20055;-69
2022/10/08 00:40:30;;;;;;;8.00;2.10;;;12.80;99.90;;;;;;5126874;27;20068;-69
2022/10/08 00:42:59;;;;;;;10.10;1.73;;;12.80;99.90;;;;;;5127779;27;20062;-69
2022/10/08 00:45:25;;;;;;;7.57;1.70;;;12.80;99.90;;;;;;5124593;27;20038;-69
2022/10/08 00:47:51;;;;;;;6.90;1.35;;;12.80;99.90;;;;;;5127526;27;20180;-69
2022/10/08 00:50:28;;;;;;;4.72;1.25;;;12.80;99.90;;;;;;5107538;27;20049;-69
2022/10/08 00:53:02;;;;;;;7.07;1.42;;;12.80;99.90;;;;;;5126557;27;20051;-69
2022/10/08 00:55:29;;;;;;;7.78;2.03;;;12.80;99.90;;;;;;5129653;27;20055;-68
2022/10/08 00:58:00;;;;;;;7.97;2.08;;;12.80;99.90;;;;;;5125058;27;20050;-69
2022/10/08 01:00:25;;;;;;;7.07;1.52;;;12.80;99.90;;;;;;5129703;27;20567;-68
2022/10/08 01:02:52;;;;;;;7.20;1.45;;;12.80;99.90;;;;;;5126860;27;20125;-69
2022/10/08 01:05:45;;;;;;;9.80;1.52;;;12.80;99.90;;;;;;5127084;27;20054;-68
2022/10/08 01:08:21;;;;;;;9.95;1.90;;;12.80;99.90;;;;;;5081338;27;20567;-69
2022/10/08 01:10:58;;;;;;;6.18;1.85;;;12.80;99.90;;;;;;5114443;27;20074;-68
2022/10/08 01:13:41;;;;;;;7.22;1.80;;;12.80;99.90;;;;;;5119935;27;20047;-69
2022/10/08 01:16:32;;;;;;;8.65;1.92;;;12.80;99.90;;;;;;5119163;27;20126;-68
2022/10/08 01:19:09;;;;;;;9.52;1.65;;;12.80;99.90;;;;;;5125613;27;20438;-69
2022/10/08 01:21:50;;;;;;;3.97;1.30;;;12.80;99.90;;;;;;5108872;27;20062;-68
2022/10/08 01:24:15;;;;;;;5.60;1.30;;;12.80;99.90;;;;;;5141908;27;20515;-69
2022/10/08 01:26:56;;;;;;;5.93;1.55;;;12.80;99.90;;;;;;5111447;27;20043;-69
2022/10/08 01:29:49;;;;;;;8.45;1.73;;;12.80;99.90;;;;;;5124540;27;20404;-69
2022/10/08 01:32:28;;;;;;;5.63;1.67;;;12.80;99.90;;;;;;5114239;27;20072;-70
2022/10/08 01:35:02;;;;;;;5.68;1.45;;;12.80;99.90;;;;;;5113432;27;20045;-69
2022/10/08 01:37:37;;;;;;;6.38;1.42;;;12.80;99.90;;;;;;5113686;27;20039;-69
2022/10/08 01:40:08;;;;;;;7.13;1.90;;;12.80;99.90;;;;;;5125941;27;20050;-69
2022/10/08 01:42:38;;;;;;;4.78;1.38;;;12.80;99.90;;;;;;5123868;27;20068;-69
2022/10/08 01:45:10;;;;;;;8.15;1.42;;;12.70;99.90;;;;;;5123632;27;20602;-70
2022/10/08 01:47:38;;;;;;;10.25;1.75;;;12.70;99.90;;;;;;5125883;27;20388;-70
2022/10/08 01:50:31;;;;;;;5.95;1.38;;;12.70;99.90;;;;;;5125715;27;20079;-70
2022/10/08 01:53:03;;;;;;;10.77;1.30;;;12.70;99.90;;;;;;5127715;27;20396;-70
2022/10/08 01:55:42;;;;;;;9.10;1.70;;;12.70;99.90;;;;;;5106779;27;20082;-70
2022/10/08 01:58:15;;;;;;;9.82;1.80;;;12.70;99.90;;;;;;5126572;27;20050;-70
2022/10/08 02:00:41;;;;;;;9.63;1.88;;;12.70;99.90;;;;;;5124899;27;20480;-70
2022/10/08 02:03:11;;;;;;;14.57;2.00;;;12.70;99.90;;;;;;5123510;27;20071;-70
2022/10/08 02:05:47;;;;;;;10.48;1.67;;;12.70;99.90;;;;;;5111872;27;20045;-70
2022/10/08 02:08:13;;;;;;;8.80;1.50;;;12.60;99.90;;;;;;5122160;27;20082;-70
2022/10/08 02:10:39;;;;;;;14.43;2.28;;;12.60;99.90;;;;;;5112711;28;20525;-70
2022/10/08 02:13:05;;;;;;;5.47;1.75;;;12.50;99.90;;;;;;5109824;27;20376;-70
2022/10/08 02:15:43;;;;;;;6.55;1.30;;;12.50;99.90;;;;;;5111228;27;20297;-70
2022/10/08 02:18:15;;;;;;;6.00;1.50;;;12.50;99.90;;;;;;5129465;27;20091;-70
2022/10/08 02:20:50;;;;;;;5.75;1.23;;;12.40;99.90;;;;;;5128769;27;20047;-70
2022/10/08 02:23:30;;;;;;;8.57;1.58;;;12.40;99.90;;;;;;5131967;27;20480;-69
2022/10/08 02:25:59;;;;;;;4.43;1.30;;;12.40;99.90;;;;;;5123587;27;20043;-69
2022/10/08 02:28:35;;;;;;;8.80;1.52;;;12.30;99.90;;;;;;5148386;27;20357;-70
2022/10/08 02:31:13;;;;;;;8.27;1.65;;;12.30;99.90;;;;;;5110521;27;20039;-69
2022/10/08 02:33:44;;;;;;;4.90;1.25;;;12.20;99.90;;;;;;5116804;27;20046;-70
2022/10/08 02:36:13;;;;;;;6.05;1.65;;;12.20;99.90;;;;;;5115577;27;20051;-70
2022/10/08 02:38:47;;;;;;;4.60;0.93;;;12.20;99.90;;;;;;5129113;27;20038;-69
2022/10/08 02:41:14;;;;;;;6.55;1.52;;;12.10;99.90;;;;;;5130116;27;20043;-69
2022/10/08 02:43:47;;;;;;;7.80;1.42;;;12.10;99.90;;;;;;5125144;27;20050;-69
2022/10/08 02:46:20;;;;;;;5.15;1.13;;;12.10;99.90;;;;;;5130967;27;20039;-70
2022/10/08 02:48:58;;;;;;;4.30;1.30;;;12.10;99.90;;;;;;5129092;27;20039;-70
2022/10/08 02:51:27;;;;;;;4.38;1.05;;;12.00;99.90;;;;;;5129779;27;20049;-69
2022/10/08 02:53:53;;;;;;;4.60;1.30;;;12.00;99.90;;;;;;5129512;27;20058;-69
2022/10/08 02:56:35;;;;;;;6.10;1.20;;;12.00;99.90;;;;;;5127984;27;20069;-69
2022/10/08 02:59:02;;;;;;;4.78;1.35;;;12.00;99.90;;;;;;5131444;27;20043;-69
2022/10/08 03:01:38;;;;;;;6.60;1.10;;;12.00;99.90;;;;;;5126377;27;20103;-69
2022/10/08 03:04:13;;;;;;;5.50;1.10;;;11.90;99.90;;;;;;5130407;27;20045;-70
2022/10/08 03:06:39;;;;;;;7.47;1.40;;;11.90;99.90;;;;;;5126627;27;20074;-69
2022/10/08 03:09:07;;;;;;;4.88;0.88;;;11.90;99.90;;;;;;5128291;27;20518;-69
2022/10/08 03:11:33;;;;;;;8.60;1.85;;;11.90;99.90;;;;;;5129228;27;20379;-69
2022/10/08 03:14:03;;;;;;;9.90;1.33;;;11.90;99.90;;;;;;5145901;27;20038;-69
2022/10/08 03:16:44;;;;;;;5.45;1.25;;;11.80;99.90;;;;;;5129581;27;20121;-69
2022/10/08 03:19:12;;;;;;;5.43;1.13;;;11.80;99.90;;;;;;5120034;27;20046;-69
2022/10/08 03:21:40;;;;;;;3.70;1.38;;;11.80;99.90;;;;;;5134605;27;20050;-69
2022/10/08 03:24:08;;;;;;;4.18;1.23;;;11.80;99.90;;;;;;5126962;27;20101;-69
2022/10/08 03:26:33;;;;;;;4.97;1.33;;;11.70;99.90;;;;;;5113744;27;20039;-69
2022/10/08 03:28:59;;;;;;;6.32;1.23;;;11.70;99.90;;;;;;5128360;27;20651;-69
2022/10/08 03:31:25;;;;;;;9.25;1.17;;;11.70;99.90;;;;;;5125532;27;20042;-68
2022/10/08 03:33:52;;;;;;;5.55;1.20;;;11.60;99.90;;;;;;5129736;27;20133;-69
2022/10/08 03:36:20;;;;;;;3.70;0.80;;;11.60;99.90;;;;;;5125848;27;20050;-69
2022/10/08 03:38:46;;;;;;;3.80;1.10;;;11.60;99.90;;;;;;5109259;27;20031;-69
2022/10/08 03:41:12;;;;;;;5.18;0.82;;;11.50;99.90;;;;;;5119715;27;20064;-70
2022/10/08 03:43:38;;;;;;;3.08;1.00;;;11.50;99.90;;;;;;5129496;27;20035;-69
2022/10/08 03:46:04;;;;;;;3.53;1.17;;;11.40;99.90;;;;;;5145275;27;20053;-69
2022/10/08 03:48:30;;;;;;;6.80;2.03;;;11.40;99.90;;;;;;5128345;27;20126;-68
2022/10/08 03:50:58;;;;;;;9.30;1.60;;;11.40;99.90;;;;;;5146047;27;20503;-69
2022/10/08 03:53:26;;;;;;;4.00;1.27;;;11.40;99.90;;;;;;5127541;27;20753;-69
2022/10/08 03:55:52;;;;;;;4.72;1.75;;;11.40;99.90;;;;;;5128954;27;20584;-69
2022/10/08 03:58:19;;;;;;;8.40;1.27;;;11.40;99.90;;;;;;5126007;27;20089;-69
2022/10/08 04:00:59;;;;;;;6.97;1.27;;;11.30;99.90;;;;;;5148723;27;20505;-69
2022/10/08 04:03:26;;;;;;;3.53;1.10;;;11.40;99.90;;;;;;5118563;27;20488;-69
2022/10/08 04:05:52;;;;;;;2.85;0.98;;;11.30;99.90;;;;;;5148165;27;20492;-69
2022/10/08 04:08:18;;;;;;;6.97;1.33;;;11.30;99.90;;;;;;5126209;27;20030;-69
2022/10/08 04:10:44;;;;;;;4.78;1.33;;;11.30;99.90;;;;;;5110821;27;20047;-69
2022/10/08 04:13:09;;;;;;;3.50;1.10;;;11.30;99.90;;;;;;5128150;27;20046;-68
2022/10/08 04:15:35;;;;;;;6.72;1.00;;;11.30;99.90;;;;;;5089024;27;20583;-69
2022/10/08 04:18:01;;;;;;;5.38;1.67;;;11.30;99.90;;;;;;5126717;27;20038;-69
2022/10/08 04:20:27;;;;;;;6.63;1.45;;;11.20;99.90;;;;;;5126418;27;20054;-69
2022/10/08 04:22:52;;;;;;;7.22;1.15;;;11.20;99.90;;;;;;5130456;27;20054;-70
2022/10/08 04:25:18;;;;;;;15.13;2.20;;;11.20;99.90;;;;;;5131534;27;20589;-69
2022/10/08 04:27:47;;;;;;;3.88;1.50;;;11.20;99.90;;;;;;5129762;27;20039;-69
2022/10/08 04:30:14;;;;;;;14.90;2.60;;;11.20;99.90;;;;;;5126215;27;20499;-69
2022/10/08 04:32:40;;;;;;;6.82;1.33;;;11.20;99.90;;;;;;5127773;27;20045;-69
2022/10/08 04:35:06;;;;;;;5.72;1.25;;;11.10;99.90;;;;;;5074633;27;20031;-69
2022/10/08 04:37:32;;;;;;;6.03;1.70;;;11.10;99.90;;;;;;5117690;27;20088;-69
2022/10/08 04:39:57;;;;;;;7.30;1.30;;;11.10;99.90;;;;;;5126835;27;20043;-69
2022/10/08 04:42:23;;;;;;;10.10;1.42;;;11.10;99.90;;;;;;5144354;27;20526;-69
2022/10/08 04:44:49;;;;;;;3.92;1.25;;;11.10;99.90;;;;;;5111700;27;20074;-69
2022/10/08 04:47:14;;;;;;;9.70;1.60;;;11.10;99.90;;;;;;5124959;27;20373;-69
2022/10/08 04:49:40;;;;;;;8.30;1.67;;;11.10;99.90;;;;;;5128762;27;20035;-69
2022/10/08 04:52:06;;;;;;;5.72;1.42;;;11.10;99.90;;;;;;5124783;27;20125;-69
2022/10/08 04:54:31;;;;;;;8.43;1.52;;;11.10;99.90;;;;;;5147100;27;20099;-69
2022/10/08 04:56:57;;;;;;;10.77;1.55;;;11.10;99.90;;;;;;5126003;27;20115;-69
2022/10/08 04:59:23;;;;;;;5.65;1.55;;;11.00;99.90;;;;;;5109705;27;20480;-68
2022/10/08 05:01:49;;;;;;;4.97;1.30;;;11.00;99.90;;;;;;5144142;27;20043;-69
2022/10/08 05:04:14;;;;;;;6.88;1.45;;;11.00;99.90;;;;;;5126530;27;20053;-69
2022/10/08 05:06:40;;;;;;;5.57;1.52;;;11.00;99.90;;;;;;5110686;27;20266;-69
2022/10/08 05:09:06;;;;;;;5.10;1.65;;;11.00;99.90;;;;;;5107510;27;20532;-69
2022/10/08 05:11:32;;;;;;;21.90;4.57;;;11.00;99.90;;;;;;5114829;27;20070;-68
2022/10/08 05:13:58;;;;;;;14.93;2.30;;;11.00;99.90;;;;;;5142990;27;20396;-69
2022/10/08 05:16:25;;;;;;;9.82;1.45;;;10.90;99.90;;;;;;5129248;27;20095;-69
2022/10/08 05:18:51;;;;;;;3.95;0.85;;;10.90;99.90;;;;;;5123202;27;20036;-69
2022/10/08 05:21:22;;;;;;;8.93;1.77;;;10.90;99.90;;;;;;5127684;27;20091;-69
2022/10/08 05:23:54;;;;;;;8.43;1.38;;;10.90;99.90;;;;;;5121661;27;20057;-69
2022/10/08 05:26:25;;;;;;;3.75;1.33;;;10.80;99.90;;;;;;5120950;27;20492;-68
2022/10/08 05:28:55;;;;;;;5.97;1.38;;;10.80;99.90;;;;;;5126608;27;20043;-68
2022/10/08 05:31:21;;;;;;;7.82;1.58;;;10.80;99.90;;;;;;5125337;27;20042;-69
2022/10/08 05:33:47;;;;;;;6.63;1.60;;;10.80;99.90;;;;;;5126901;27;20050;-68
2022/10/08 05:36:22;;;;;;;10.98;1.95;;;10.80;99.90;;;;;;5106128;27;20039;-69
2022/10/08 05:38:48;;;;;;;8.95;1.63;;;10.70;99.90;;;;;;5110649;27;20047;-69
2022/10/08 05:41:19;;;;;;;6.97;1.25;;;10.70;99.90;;;;;;5124376;27;20065;-69
2022/10/08 05:43:45;;;;;;;7.47;1.65;;;10.70;99.90;;;;;;5125355;27;20057;-69
2022/10/08 05:46:11;;;;;;;9.32;1.70;;;10.70;99.90;;;;;;5117293;27;20046;-69
2022/10/08 05:48:38;;;;;;;10.13;2.03;;;10.70;99.90;;;;;;5143721;27;20365;-69
2022/10/08 05:51:06;;;;;;;7.45;1.70;;;10.60;99.90;;;;;;5129216;27;20396;-69
2022/10/08 05:53:36;;;;;;;9.10;1.80;;;10.60;99.90;;;;;;5128864;27;20074;-69
2022/10/08 05:56:03;;;;;;;;;;;10.60;99.90;;;;;;5132762;27;20484;-69
2022/10/08 05:58:29;;;;;;;8.93;2.03;;;10.60;99.90;;;;;;5145638;27;19926;-69
2022/10/08 06:00:59;;;;;;;12.95;1.42;;;10.60;99.90;;;;;;5130755;27;20149;-69
2022/10/08 06:03:25;;;;;;;12.88;2.58;;;10.60;99.90;;;;;;5125590;27;20080;-69
2022/10/08 06:05:51;;;;;;;13.05;2.33;;;10.60;99.90;;;;;;5126499;27;20136;-69
2022/10/08 06:08:17;;;;;;;16.83;2.00;;;10.70;99.90;;;;;;5120727;27;20043;-69
2022/10/08 06:10:53;;;;;;;5.95;1.90;;;10.70;99.90;;;;;;5117551;27;20053;-69
2022/10/08 06:13:20;;;;;;;10.57;2.08;;;10.70;99.90;;;;;;5112474;27;20047;-69
2022/10/08 06:16:02;;;;;;;15.05;2.70;;;10.70;99.90;;;;;;5119398;27;20097;-69
2022/10/08 06:18:32;;;;;;;11.65;2.00;;;10.70;99.90;;;;;;5134858;27;20072;-69
2022/10/08 06:21:06;;;;;;;7.13;1.40;;;10.70;99.90;;;;;;5127131;27;20039;-69
2022/10/08 06:23:32;;;;;;;9.15;1.77;;;10.80;99.90;;;;;;5136641;27;20137;-69
2022/10/08 06:26:06;;;;;;;10.18;1.60;;;10.80;99.90;;;;;;5126952;27;20039;-69
2022/10/08 06:28:33;;;;;;;11.80;1.85;;;10.80;99.90;;;;;;5125771;27;20051;-69
2022/10/08 06:30:59;;;;;;;6.75;1.45;;;10.90;99.90;;;;;;5111800;27;20035;-69
2022/10/08 06:33:25;;;;;;;11.52;2.20;;;10.80;99.90;;;;;;5127460;27;20492;-69
2022/10/08 06:35:51;;;;;;;10.68;2.22;;;11.00;99.90;;;;;;5131115;27;20050;-69
2022/10/08 06:38:17;;;;;;;15.25;1.98;;;11.00;99.90;;;;;;5125865;27;20042;-69
2022/10/08 06:40:43;;;;;;;11.43;1.95;;;11.10;99.90;;;;;;5149303;27;20106;-69
2022/10/08 06:43:17;;;;;;;10.32;1.75;;;11.30;99.90;;;;;;5126750;27;20046;-69
2022/10/08 06:45:45;;;;;;;6.43;1.77;;;11.40;99.90;;;;;;5129150;27;20065;-70
2022/10/08 06:48:12;;;;;;;9.00;1.73;;;11.50;99.90;;;;;;5119705;27;20113;-69
2022/10/08 06:50:41;;;;;;;7.07;1.50;;;11.60;99.90;;;;;;5130337;27;20038;-69
2022/10/08 06:53:10;;;;;;;8.53;1.50;;;11.70;99.90;;;;;;5130217;27;20050;-69
2022/10/08 06:55:37;;;;;;;8.00;1.40;;;11.80;99.90;;;;;;5125441;27;20464;-69
2022/10/08 06:58:04;;;;;;;11.75;1.73;;;11.90;99.90;;;;;;5127073;27;20459;-69
2022/10/08 07:00:30;;;;;;;9.55;1.70;;;12.00;99.90;;;;;;5127064;27;20046;-69
2022/10/08 07:02:56;;;;;;;9.38;1.75;;;12.00;99.90;;;;;;5111601;27;20039;-69
2022/10/08 07:05:23;;;;;;;17.65;2.47;;;12.10;99.90;;;;;;5134645;27;20421;-69
2022/10/08 07:07:48;;;;;;;16.05;2.10;;;12.10;99.90;;;;;;5119293;27;20190;-69
2022/10/08 07:10:14;;;;;;;8.02;1.60;;;12.20;99.90;;;;;;5136174;27;20126;-69
2022/10/08 07:12:40;;;;;;;16.48;2.85;;;12.20;99.90;;;;;;5123061;27;20038;-70
2022/10/08 07:15:06;;;;;;;6.00;1.60;;;12.20;99.90;;;;;;5121715;27;20035;-70
2022/10/08 07:17:32;;;;;;;12.25;1.90;;;12.30;99.90;;;;;;5125670;27;20047;-71
2022/10/08 07:19:58;;;;;;;6.65;1.20;;;12.40;99.90;;;;;;5114159;27;20125;-71
2022/10/08 07:22:24;;;;;;;11.57;1.80;;;12.50;99.90;;;;;;5130420;27;20050;-70
2022/10/08 07:24:50;;;;;;;5.85;1.67;;;12.50;99.90;;;;;;5131170;27;20039;-71
2022/10/08 07:27:17;;;;;;;12.88;1.65;;;12.60;99.90;;;;;;5129887;27;20038;-72
2022/10/08 07:29:43;;;;;;;9.90;1.90;;;12.60;99.90;;;;;;5131149;27;20107;-70
2022/10/08 07:32:09;;;;;;;12.13;1.85;;;12.60;99.90;;;;;;5132222;27;20050;-70
2022/10/08 07:34:34;;;;;;;14.85;2.28;;;12.70;99.90;;;;;;5130118;27;20062;-71
2022/10/08 07:37:01;;;;;;;10.05;2.17;;;12.80;99.90;;;;;;5114357;27;20038;-72
2022/10/08 07:39:26;;;;;;;11.27;2.33;;;12.90;99.90;;;;;;5097584;27;20051;-72
2022/10/08 07:41:52;;;;;;;8.02;1.55;;;13.00;99.90;;;;;;5130032;27;20473;-72
2022/10/08 07:44:18;;;;;;;7.40;1.65;;;12.90;99.90;;;;;;5112961;27;20105;-71
2022/10/08 07:46:46;;;;;;;5.05;1.65;;;12.80;99.90;;;;;;5129920;27;20122;-72
2022/10/08 07:49:12;;;;;;;6.38;1.60;;;12.80;99.90;;;;;;5130684;27;20035;-92
2022/10/08 07:51:40;;;;;;;9.85;2.58;;;12.80;99.90;;;;;;5113211;27;20551;-72
2022/10/08 07:54:07;;;;;;;10.32;1.98;;;12.80;99.90;;;;;;5131154;27;20054;-72
2022/10/08 07:56:34;;;;;;;11.48;1.75;;;12.90;99.90;;;;;;5146077;27;20051;-71
2022/10/08 07:59:00;;;;;;;6.43;1.20;;;13.10;99.90;;;;;;5130427;27;20108;-72
2022/10/08 08:01:28;;;;;;;5.25;1.08;;;13.10;99.90;;;;;;5129399;27;20043;-70
2022/10/08 08:04:05;;;;;;;11.77;1.45;;;13.10;99.90;;;;;;5129419;27;20091;-71
2022/10/08 08:06:36;;;;;;;4.63;1.35;;;13.10;99.90;;;;;;5130024;27;20058;-71
2022/10/08 08:09:02;;;;;;;4.78;1.05;;;13.00;99.90;;;;;;5127726;27;20085;-71
2022/10/08 08:11:28;;;;;;;5.85;1.33;;;13.10;99.90;;;;;;5123498;27;20050;-72
2022/10/08 08:13:54;;;;;;;9.63;1.73;;;13.10;99.90;;;;;;5127112;27;20141;-71
2022/10/08 08:16:26;;;;;;;5.43;1.30;;;13.20;99.90;;;;;;5144656;27;20114;-71
2022/10/08 08:18:57;;;;;;;5.85;1.52;;;13.40;99.90;;;;;;5120451;27;20051;-71
2022/10/08 08:21:35;;;;;;;7.13;1.17;;;13.40;99.90;;;;;;5114615;27;20047;-71
2022/10/08 08:24:09;;;;;;;10.02;2.10;;;13.40;99.90;;;;;;5130162;27;20046;-70
2022/10/08 08:26:38;;;;;;;5.72;1.10;;;13.30;99.90;;;;;;5132426;27;20039;-71
2022/10/08 08:29:09;;;;;;;4.30;1.13;;;13.30;99.90;;;;;;5122344;27;20078;-71
2022/10/08 08:31:38;;;;;;;2.90;1.08;;;13.30;99.90;;;;;;5147626;27;20049;-91
2022/10/08 08:34:10;;;;;;;5.68;1.33;;;13.30;99.90;;;;;;5130582;27;20069;-71
2022/10/08 08:36:38;;;;;;;3.60;1.00;;;13.40;99.90;;;;;;5129241;27;20118;-85
2022/10/08 08:39:06;;;;;;;8.02;2.03;;;13.40;99.90;;;;;;5117513;27;20047;-70
2022/10/08 08:41:50;;;;;;;7.90;1.50;;;13.40;99.90;;;;;;5144736;27;20080;-69
2022/10/08 08:44:16;;;;;;;11.25;2.03;;;13.40;99.90;;;;;;5129162;27;20046;-70
2022/10/08 08:47:14;;;;;;;6.93;1.75;;;13.40;99.90;;;;;;5130338;27;20038;-71
2022/10/08 08:49:44;;;;;;;7.88;1.25;;;13.40;99.90;;;;;;5105065;27;20433;-70
2022/10/08 08:52:15;;;;;;;4.35;0.95;;;13.50;99.90;;;;;;5147910;27;20554;-70
2022/10/08 08:54:44;;;;;;;6.45;1.38;;;13.70;99.90;;;;;;5123193;27;20046;-70
2022/10/08 08:57:31;;;;;;;6.95;1.20;;;13.80;99.90;;;;;;5142221;27;20043;-70
2022/10/08 09:00:21;;;;;;;9.43;1.38;;;13.80;99.90;;;;;;5107420;27;20399;-70
2022/10/08 09:03:09;;;;;;;10.30;1.95;;;14.00;99.90;;;;;;5131808;27;20181;-69
2022/10/08 09:05:40;;;;;;;7.57;1.98;;;14.00;99.90;;;;;;5130628;27;20492;-67
2022/10/08 09:08:33;;;;;;;6.97;1.23;;;13.90;99.90;;;;;;5131294;27;20035;-67
2022/10/08 09:11:01;;;;;;;4.40;1.30;;;13.70;99.90;;;;;;5148179;27;20182;-72
2022/10/08 09:13:34;;;;;;;3.47;0.88;;;13.60;99.90;;;;;;5130913;27;20103;-69
2022/10/08 09:16:01;;;;;;;5.00;1.70;;;13.30;99.90;;;;;;5129482;27;20409;-69
2022/10/08 09:18:27;;;;;;;5.82;1.05;;;13.00;99.90;;;;;;5129033;27;20369;-72
2022/10/08 09:20:52;;;;;;;4.03;1.00;;;12.80;99.90;;;;;;5129845;27;20082;-69
2022/10/08 09:23:21;;;;;;;6.65;0.85;;;12.60;99.90;;;;;;5128105;27;20063;-70
2022/10/08 09:25:58;;;;;;;4.40;0.95;;;12.80;99.90;;;;;;5129057;27;20043;-71
2022/10/08 09:28:52;;;;;;;7.70;1.48;;;12.90;99.90;;;;;;5128697;27;20043;-71
2022/10/08 09:31:21;;;;;;;9.52;1.13;;;13.20;99.90;;;;;;5124592;27;20069;-70
2022/10/08 09:34:00;;;;;;;5.57;1.10;;;13.40;99.90;;;;;;5129224;27;20387;-71
2022/10/08 09:36:43;;;;;;;6.10;0.98;;;13.70;99.90;;;;;;5128381;27;20042;-71
2022/10/08 09:39:30;;;;;;;6.15;1.15;;;13.90;99.90;;;;;;5129646;27;20050;-71
2022/10/08 09:42:16;;;;;;;4.40;1.30;;;14.00;99.90;;;;;;5111886;27;20052;-69
2022/10/08 09:44:45;;;;;;;3.65;0.93;;;14.10;99.90;;;;;;5120499;27;20087;-70
2022/10/08 09:47:16;;;;;;;3.78;0.80;;;14.30;99.90;;;;;;5123409;27;20091;-69
2022/10/08 09:49:43;;;;;;;7.93;1.27;;;14.40;99.90;;;;;;5127623;27;20069;-70
2022/10/08 09:52:20;;;;;;;8.27;1.15;;;14.60;99.90;;;;;;5129188;27;20114;-69
2022/10/08 09:54:54;;;;;;;12.23;1.48;;;14.70;99.90;;;;;;5128840;27;20108;-70
2022/10/08 09:57:21;;;;;;;10.27;2.25;;;14.90;99.90;;;;;;5093953;28;20035;-76
2022/10/08 09:59:58;;;;;;;8.85;1.50;;;15.10;99.90;;;;;;5104278;27;20102;-69
2022/10/08 10:02:37;;;;;;;9.52;1.90;;;15.30;99.90;;;;;;5146601;27;20121;-69
2022/10/08 10:05:05;;;;;;;5.75;1.00;;;15.30;99.90;;;;;;5128932;27;20092;-93
2022/10/08 10:07:43;;;;;;;8.40;1.50;;;15.30;99.90;;;;;;5134455;27;20047;-68
2022/10/08 10:10:32;;;;;;;6.25;1.52;;;15.20;99.90;;;;;;5128373;27;20046;-68
2022/10/08 10:13:04;;;;;;;7.22;1.30;;;15.40;99.90;;;;;;5120606;27;20496;-68
2022/10/08 10:15:49;;;;;;;8.30;1.48;;;15.30;97.10;;;;;;5110932;27;20049;-68
2022/10/08 10:18:29;;;;;;;8.25;1.65;;;15.20;99.90;;;;;;5133799;27;20113;-68
2022/10/08 10:21:00;;;;;;;12.60;1.83;;;15.00;99.50;;;;;;5129022;27;20039;-92
2022/10/08 10:23:41;;;;;;;10.15;2.45;;;14.90;99.90;;;;;;5124747;28;20165;-68
2022/10/08 10:26:15;;;;;;;8.82;1.77;;;15.10;99.90;;;;;;5142460;27;20042;-68
2022/10/08 10:28:47;;;;;;;15.50;2.17;;;15.30;99.90;;;;;;5128003;27;20050;-79
2022/10/08 10:31:27;;;;;;;7.15;1.67;;;15.40;95.60;;;;;;5128897;27;20096;-68
2022/10/08 10:34:03;;;;;;;9.10;1.90;;;15.60;99.10;;;;;;5129480;27;20451;-68
2022/10/08 10:36:37;;;;;;;12.18;2.47;;;15.50;91.90;;;;;;5129309;27;20130;-71
2022/10/08 10:39:12;;;;;;;10.82;1.90;;;15.50;93.60;;;;;;5132784;27;20118;-68
2022/10/08 10:41:44;;;;;;;7.55;1.90;;;15.60;92.30;;;;;;5147295;27;20099;-68
2022/10/08 10:44:13;;;;;;;5.20;1.73;;;15.60;81.80;;;;;;5122974;27;20086;-68
2022/10/08 10:46:48;;;;;;;12.88;1.85;;;15.60;79.70;;;;;;5115671;27;20042;-70
2022/10/08 10:49:37;;;;;;;10.07;2.42;;;15.50;73.90;;;;;;5122209;27;20043;-68
2022/10/08 10:52:02;;;;;;;7.45;1.98;;;15.60;79.90;;;;;;5129382;27;20050;-74
2022/10/08 10:55:10;;;;;;;8.07;1.88;;;15.60;72.80;;;;;;5120034;27;20489;-68
2022/10/08 10:57:41;;;;;;;7.22;1.42;;;15.60;72.40;;;;;;5043359;28;20531;-68
2022/10/08 11:00:17;;;;;;;12.00;2.20;;;15.70;77.30;;;;;;5117001;27;20085;-69
2022/10/08 11:03:01;;;;;;;7.20;1.80;;;15.80;76.50;;;;;;5122534;27;20153;-84
2022/10/08 11:05:31;;;;;;;9.65;2.20;;;16.00;76.20;;;;;;5134191;27;20552;-67
2022/10/08 11:08:16;;;;;;;9.02;2.40;;;16.00;74.30;;;;;;5139888;27;20038;-68
2022/10/08 11:11:00;;;;;;;8.80;2.35;;;15.90;69.00;;;;;;5144526;27;20549;-67
2022/10/08 11:13:42;;;;;;;11.30;2.65;;;15.50;69.80;;;;;;5147409;27;20039;-68
2022/10/08 11:16:30;;;;;;;6.35;1.88;;;15.30;81.20;;;;;;5140610;27;20552;-81
2022/10/08 11:18:58;;;;;;;13.82;3.08;;;15.30;77.60;;;;;;5139084;27;20532;-68
2022/10/08 11:21:37;;;;;;;12.05;2.13;;;15.40;79.80;;;;;;5131707;27;20467;-68
2022/10/08 11:24:15;;;;;;;8.45;1.90;;;15.40;77.00;;;;;;5093734;27;20043;-69
2022/10/08 11:26:59;;;;;;;11.63;2.05;;;15.40;76.50;;;;;;5150295;27;20488;-68
2022/10/08 11:29:54;;;;;;;10.27;2.08;;;15.30;79.60;;;;;;5130508;27;20054;-68
2022/10/08 11:32:21;;;;;;;9.82;1.52;;;15.10;75.60;;;;;;5149015;27;20035;-68
2022/10/08 11:35:16;;;;;;;8.60;1.73;;;15.20;79.20;;;;;;5150120;27;20488;-68
2022/10/08 11:37:55;;;;;;;7.35;1.58;;;15.10;72.90;;;;;;5130388;27;20174;-85
2022/10/08 11:40:39;;;;;;;11.27;2.40;;;14.90;79.40;;;;;;5131656;27;20571;-68
2022/10/08 11:43:32;;;;;;;11.98;2.03;;;14.70;84.30;;;;;;5149376;27;20045;-68
2022/10/08 11:46:21;;;;;;;7.47;1.80;;;14.80;93.70;;;;;;5149264;27;20047;-68
2022/10/08 11:48:48;;;;;;;13.10;2.22;;;14.90;90.80;;;;;;5130015;27;20555;-67
2022/10/08 11:51:20;;;;;;;6.40;1.50;;;15.00;88.10;;;;;;5148758;27;20026;-68
2022/10/08 11:54:01;;;;;;;5.20;1.35;;;14.90;84.00;;;;;;5130763;27;20049;-69
2022/10/08 11:56:27;;;;;;;5.75;1.55;;;15.00;84.90;;;;;;5149968;27;20481;-68
2022/10/08 11:58:56;;;;;;;6.85;1.50;;;15.00;82.10;;;;;;5130207;27;20055;-76
2022/10/08 12:01:22;;;;;;;15.17;1.73;;;15.20;90.00;;;;;;5131415;27;20073;-68
2022/10/08 12:04:17;;;;;;;9.15;1.88;;;15.30;87.90;;;;;;5129235;27;20068;-87
2022/10/08 12:06:46;;;;;;;11.05;2.20;;;15.40;80.40;;;;;;5131637;27;20097;-68
2022/10/08 12:09:22;;;;;;;10.65;1.95;;;15.60;87.20;;;;;;5130568;27;20050;-68
2022/10/08 12:11:50;;;;;;;10.88;1.80;;;15.60;84.20;;;;;;5148667;27;20397;-68
2022/10/08 12:14:17;;;;;;;5.50;1.50;;;15.70;80.10;;;;;;5149406;27;20046;-68
2022/10/08 12:16:55;;;;;;;4.85;1.63;;;15.80;76.00;;;;;;5121608;27;20168;-69
2022/10/08 12:19:32;;;;;;;8.20;1.60;;;15.90;79.80;;;;;;5144881;27;20054;-68
2022/10/08 12:22:02;;;;;;;6.57;1.98;;;15.70;74.10;;;;;;5130906;27;20604;-68
2022/10/08 12:24:37;;;;;;;8.93;1.92;;;15.50;74.60;;;;;;5128698;27;20106;-69
2022/10/08 12:27:15;;;;;;;8.07;1.77;;;15.30;86.30;;;;;;5127543;27;20055;-68
2022/10/08 12:30:11;;;;;;;10.50;1.80;;;15.00;94.40;;;;;;5143112;27;20078;-68
2022/10/08 12:32:43;;;;;;;10.82;2.38;;;14.80;98.90;;;;;;5122539;27;20055;-84
2022/10/08 12:35:24;;;;;;;6.60;2.05;;;14.80;97.50;;;;;;5149064;27;20399;-68
2022/10/08 12:38:19;;;;;;;11.43;2.00;;;15.10;99.40;;;;;;5148177;27;20047;-67
2022/10/08 12:41:07;;;;;;;11.95;2.33;;;15.30;99.40;;;;;;5117114;27;20492;-68
2022/10/08 12:43:57;;;;;;;12.40;2.92;;;15.30;98.10;;;;;;5147483;27;20635;-67
2022/10/08 12:46:32;;;;;;;7.15;1.83;;;14.90;90.40;;;;;;5146703;27;20093;-68
2022/10/08 12:49:19;;;;;;;8.23;1.95;;;14.60;89.80;;;;;;5130469;27;20054;-68
2022/10/08 12:52:05;;;;;;;9.57;2.08;;;14.40;88.00;;;;;;5112524;27;20117;-67
2022/10/08 12:54:32;;;;;;;11.05;1.92;;;14.30;92.10;;;;;;5128824;27;20134;-67
2022/10/08 12:57:00;;;;;;;16.38;2.13;;;14.20;94.20;;;;;;5148848;27;20058;-68
2022/10/08 12:59:31;;;;;;;7.60;2.13;;;14.20;95.40;;;;;;5128029;27;20043;-68
2022/10/08 13:01:57;;;;;;;8.57;2.10;;;14.10;92.00;;;;;;5148835;27;20043;-68
2022/10/08 13:04:31;;;;;;;9.60;1.80;;;14.10;91.40;;;;;;5128721;27;20093;-67
2022/10/08 13:06:57;;;;;;;9.82;1.88;;;14.20;93.80;;;;;;5148309;27;20045;-67
2022/10/08 13:09:32;;;;;;;9.48;1.50;;;14.70;91.80;;;;;;5129113;27;20034;-67